createdAt,value
2018-10-21T00:00:10.545Z,30.27
2018-10-21T00:02:39.165Z,31.70
2018-10-21T00:05:09.448Z,31.60
2018-10-21T00:07:38.112Z,30.90
2018-10-21T00:10:08.148Z,31.17
2018-10-21T00:12:36.861Z,30.33
2018-10-21T00:15:06.267Z,31.00
2018-10-21T00:17:34.847Z,30.03
2018-10-21T00:20:03.577Z,29.73
2018-10-21T00:22:32.320Z,31.23
2018-10-21T00:25:00.952Z,31.60
2018-10-21T00:27:29.620Z,31.43
2018-10-21T00:29:58.303Z,31.23
2018-10-21T00:32:33.038Z,31.70
2018-10-21T00:35:01.713Z,30.57
2018-10-21T00:37:30.356Z,31.33
2018-10-21T00:39:58.956Z,31.83
2018-10-21T00:42:27.572Z,31.27
2018-10-21T00:44:56.244Z,33.77
2018-10-21T00:47:24.867Z,33.30
2018-10-21T00:49:53.532Z,32.17
2018-10-21T00:52:22.144Z,31.30
2018-10-21T00:54:50.820Z,32.27
2018-10-21T00:57:19.480Z,33.07
2018-10-21T00:59:48.153Z,34.20
2018-10-21T01:02:16.825Z,32.67
2018-10-21T01:04:45.461Z,33.60
2018-10-21T01:07:14.125Z,33.47
2018-10-21T01:09:42.846Z,30.90
2018-10-21T01:12:11.505Z,32.47
2018-10-21T01:14:40.197Z,30.23
2018-10-21T01:17:08.905Z,31.47
2018-10-21T01:19:37.588Z,31.37
2018-10-21T01:22:06.407Z,30.37
2018-10-21T01:24:35.023Z,30.77
2018-10-21T01:27:03.658Z,31.30
2018-10-21T01:29:32.307Z,30.53
2018-10-21T01:32:00.962Z,30.67
2018-10-21T01:34:29.609Z,32.60
2018-10-21T01:36:58.395Z,31.27
2018-10-21T01:40:36.472Z,33.57
2018-10-21T01:43:05.726Z,31.93
2018-10-21T01:45:34.550Z,31.93
2018-10-21T01:48:04.456Z,33.97
2018-10-21T01:50:33.102Z,33.97
2018-10-21T01:53:02.964Z,34.03
2018-10-21T01:55:31.589Z,34.37
2018-10-21T01:58:00.532Z,35.23
2018-10-21T02:00:29.749Z,33.37
2018-10-21T02:02:59.048Z,33.80
2018-10-21T02:05:27.958Z,34.77
2018-10-21T02:07:56.853Z,35.20
2018-10-21T02:10:25.531Z,33.97
2018-10-21T02:12:54.287Z,34.07
2018-10-21T02:15:22.973Z,34.47
2018-10-21T02:17:51.652Z,34.70
2018-10-21T02:20:21.029Z,35.43
2018-10-21T02:22:50.221Z,33.57
2018-10-21T02:25:18.944Z,36.03
2018-10-21T02:27:48.336Z,34.80
2018-10-21T02:30:21.332Z,34.73
2018-10-21T02:32:50.624Z,35.60
2018-10-21T02:35:19.839Z,36.47
2018-10-21T02:37:48.863Z,35.23
2018-10-21T02:41:44.399Z,34.40
2018-10-21T02:44:18.352Z,35.67
2018-10-21T02:46:47.715Z,35.83
2018-10-21T02:49:17.249Z,36.30
2018-10-21T02:51:51.060Z,35.03
2018-10-21T02:54:23.370Z,34.77
2018-10-21T02:56:52.072Z,35.50
2018-10-21T02:59:21.177Z,37.63
2018-10-21T03:01:49.981Z,37.63
2018-10-21T03:04:18.955Z,37.27
2018-10-21T03:06:47.843Z,37.07
2018-10-21T03:09:16.582Z,37.33
2018-10-21T03:11:45.204Z,35.37
2018-10-21T03:14:13.940Z,36.23
2018-10-21T03:16:42.598Z,37.20
2018-10-21T03:19:11.286Z,36.93
2018-10-21T03:21:39.947Z,36.63
2018-10-21T03:24:08.587Z,38.63
2018-10-21T03:26:37.229Z,36.63
2018-10-21T03:29:06.128Z,36.60
2018-10-21T03:31:34.871Z,36.70
2018-10-21T03:34:03.698Z,36.13
2018-10-21T03:36:32.351Z,36.27
2018-10-21T03:39:01.042Z,35.03
2018-10-21T03:41:29.711Z,37.17
2018-10-21T03:43:58.305Z,35.90
2018-10-21T03:46:26.921Z,36.97
2018-10-21T03:48:55.613Z,35.63
2018-10-21T03:51:24.244Z,36.33
2018-10-21T03:53:52.905Z,35.30
2018-10-21T03:56:21.572Z,33.47
2018-10-21T03:58:50.217Z,33.67
2018-10-21T04:01:18.870Z,34.93
2018-10-21T04:03:47.551Z,35.30
2018-10-21T04:06:16.169Z,34.47
2018-10-21T04:08:44.888Z,35.63
2018-10-21T04:11:13.499Z,35.50
2018-10-21T04:13:42.185Z,36.40
2018-10-21T04:16:12.041Z,34.83
2018-10-21T04:18:40.718Z,34.53
2018-10-21T04:21:09.430Z,35.00
2018-10-21T04:23:38.130Z,33.73
2018-10-21T04:26:06.782Z,34.67
2018-10-21T04:28:35.867Z,32.13
2018-10-21T04:31:04.520Z,33.60
2018-10-21T04:33:39.682Z,32.77
2018-10-21T04:36:10.085Z,31.07
2018-10-21T04:38:49.759Z,31.97
2018-10-21T04:41:18.364Z,33.10
2018-10-21T04:43:47.021Z,33.00
2018-10-21T04:46:15.770Z,31.43
2018-10-21T04:48:44.373Z,32.40
2018-10-21T04:51:12.949Z,32.57
2018-10-21T04:53:41.572Z,32.10
2018-10-21T04:56:10.218Z,33.43
2018-10-21T04:58:38.853Z,31.53
2018-10-21T05:01:07.488Z,32.80
2018-10-21T05:03:36.082Z,32.23
2018-10-21T05:06:04.899Z,33.10
2018-10-21T05:08:33.534Z,32.87
2018-10-21T05:11:02.225Z,31.93
2018-10-21T05:13:30.811Z,31.00
2018-10-21T05:15:59.475Z,29.77
2018-10-21T05:18:28.123Z,28.50
2018-10-21T05:20:56.761Z,27.60
2018-10-21T05:23:25.445Z,29.00
2018-10-21T05:25:54.093Z,28.60
2018-10-21T05:28:22.767Z,28.73
2018-10-21T05:30:51.420Z,28.60
2018-10-21T05:33:20.057Z,29.20
2018-10-21T05:35:48.760Z,31.03
2018-10-21T05:38:17.428Z,29.03
2018-10-21T05:43:08.368Z,28.90
2018-10-21T05:45:37.002Z,28.10
2018-10-21T05:48:05.944Z,29.67
2018-10-21T05:50:34.556Z,32.63
2018-10-21T05:53:03.156Z,32.50
2018-10-21T05:55:31.831Z,32.73
2018-10-21T05:58:00.648Z,30.83
2018-10-21T06:00:29.213Z,30.43
2018-10-21T06:02:57.993Z,32.07
2018-10-21T06:05:36.456Z,28.23
2018-10-21T06:08:05.498Z,28.23
2018-10-21T06:10:34.331Z,27.30
2018-10-21T06:13:02.975Z,28.23
2018-10-21T14:42:28.152Z,28.17
2018-10-21T14:44:56.821Z,28.70
2018-10-21T15:17:02.036Z,29.07
2018-10-21T15:19:30.674Z,30.27
2018-10-21T15:21:59.432Z,29.90
2018-10-21T15:24:28.070Z,28.53
2018-10-21T15:26:56.896Z,29.37
2018-10-21T15:29:25.628Z,30.23
2018-10-21T15:34:21.216Z,30.13
2018-10-21T15:36:49.903Z,24.03
2018-10-21T15:39:18.645Z,27.73
2018-10-21T15:41:47.430Z,29.17
2018-10-21T15:44:16.167Z,29.20
2018-10-21T15:46:44.883Z,29.93
2018-10-21T15:49:13.571Z,29.43
2018-10-21T15:51:43.288Z,27.47
2018-10-21T15:54:12.019Z,26.20
2018-10-21T15:56:40.787Z,27.77
2018-10-21T15:59:09.477Z,26.10
2018-10-21T16:01:38.226Z,27.60
2018-10-21T16:04:06.948Z,26.47
2018-10-21T16:10:54.896Z,28.13
2018-10-21T16:13:23.533Z,28.67
2018-10-21T16:15:52.335Z,28.27
2018-10-21T16:18:20.977Z,29.27
2018-10-21T16:20:49.619Z,25.97
2018-10-21T16:23:18.330Z,27.53
2018-10-21T16:25:47.082Z,29.03
2018-10-21T16:28:15.780Z,28.97
2018-10-21T16:30:44.359Z,26.97
2018-10-21T16:33:13.025Z,26.33
2018-10-21T16:35:41.700Z,27.43
2018-10-21T16:38:10.360Z,27.60
2018-10-21T16:40:39.010Z,26.20
2018-10-21T16:43:07.617Z,26.53
2018-10-21T16:45:36.242Z,26.37
2018-10-21T16:48:05.237Z,23.33
2018-10-21T16:50:37.737Z,24.37
2018-10-21T16:54:33.552Z,25.37
2018-10-21T16:57:04.882Z,24.00
2018-10-21T16:59:33.530Z,23.60
2018-10-21T17:02:02.211Z,24.70
2018-10-21T17:04:30.889Z,26.30
2018-10-21T17:06:59.630Z,25.83
2018-10-21T17:09:28.532Z,24.17
2018-10-21T17:11:57.108Z,24.90
2018-10-21T17:14:46.972Z,26.00
2018-10-21T17:17:15.811Z,25.87
2018-10-21T17:19:44.416Z,25.40
2018-10-21T17:22:13.156Z,24.93
2018-10-21T17:24:41.892Z,25.43
2018-10-21T17:27:10.699Z,25.37
2018-10-21T17:29:39.379Z,24.50
2018-10-21T17:32:08.003Z,24.80
2018-10-21T17:34:36.645Z,27.10
2018-10-21T17:37:05.515Z,26.23
2018-10-21T17:39:34.210Z,26.63
2018-10-21T17:42:02.948Z,27.00
2018-10-21T17:44:31.589Z,26.37
2018-10-21T17:47:00.273Z,27.63
2018-10-21T17:49:28.990Z,27.20
2018-10-21T17:51:57.803Z,26.13
2018-10-21T17:54:26.420Z,28.00
2018-10-21T17:56:58.518Z,25.20
2018-10-21T17:59:27.848Z,27.47
2018-10-21T18:01:57.347Z,27.00
2018-10-21T18:04:26.788Z,25.53
2018-10-21T18:06:55.670Z,27.63
2018-10-21T18:09:24.281Z,26.40
2018-10-21T18:11:52.959Z,26.57
2018-10-21T18:14:21.703Z,26.77
2018-10-21T18:16:50.507Z,26.33
2018-10-21T18:19:19.193Z,25.83
2018-10-21T18:21:47.830Z,25.93
2018-10-21T18:24:16.468Z,26.17
2018-10-21T18:26:45.144Z,26.63
2018-10-21T18:29:14.368Z,26.63
2018-10-21T18:31:43.168Z,27.47
2018-10-21T18:34:11.892Z,25.60
2018-10-21T18:36:40.634Z,26.30
2018-10-21T18:39:10.401Z,26.57
2018-10-21T18:41:39.174Z,27.83
2018-10-21T18:44:08.478Z,27.57
2018-10-21T18:46:37.145Z,27.50
2018-10-21T18:49:05.866Z,26.77
2018-10-21T18:51:34.618Z,25.73
2018-10-21T18:54:03.518Z,27.37
2018-10-21T18:56:32.268Z,27.83
2018-10-21T18:59:01.074Z,27.97
2018-10-21T19:01:29.776Z,27.70
2018-10-21T19:03:58.594Z,27.97
2018-10-21T19:06:27.317Z,27.47
2018-10-21T19:08:55.989Z,27.77
2018-10-21T19:11:24.621Z,26.33
2018-10-21T19:13:53.441Z,27.17
2018-10-21T19:16:22.434Z,27.53
2018-10-21T19:18:53.241Z,27.13
2018-10-21T19:21:21.962Z,27.13
2018-10-21T19:23:50.636Z,28.43
2018-10-21T19:26:19.305Z,27.57
2018-10-21T19:28:47.994Z,28.03
2018-10-21T19:31:16.763Z,27.63
2018-10-21T19:33:45.879Z,28.07
2018-10-21T19:36:14.527Z,27.97
2018-10-21T19:38:47.059Z,28.50
2018-10-21T19:41:15.753Z,27.33
2018-10-21T19:43:44.427Z,28.37
2018-10-21T19:46:13.119Z,26.97
2018-10-21T19:48:41.814Z,28.23
2018-10-21T19:51:10.531Z,28.80
2018-10-21T19:53:39.205Z,27.93
2018-10-21T19:56:07.851Z,29.93
2018-10-21T19:58:36.568Z,29.13
2018-10-21T20:01:05.559Z,28.97
2018-10-21T20:03:34.190Z,27.87
2018-10-21T20:06:02.924Z,28.13
2018-10-21T20:08:31.564Z,28.30
2018-10-21T20:11:00.202Z,27.97
2018-10-21T20:13:28.947Z,28.87
2018-10-21T20:15:57.586Z,28.23
2018-10-21T20:18:26.949Z,27.87
2018-10-21T20:20:55.625Z,29.10
2018-10-21T20:25:21.294Z,28.10
2018-10-21T20:27:49.929Z,28.70
2018-10-21T20:30:18.640Z,27.70
2018-10-21T20:32:47.338Z,29.37
2018-10-21T20:35:16.012Z,27.43
2018-10-21T20:37:44.625Z,28.87
2018-10-21T20:40:13.312Z,28.20
2018-10-21T20:42:41.961Z,28.23
2018-10-21T20:45:11.998Z,29.43
2018-10-21T20:47:40.745Z,30.07
2018-10-21T20:50:09.545Z,28.43
2018-10-21T20:52:38.391Z,29.63
2018-10-21T20:55:07.477Z,29.97
2018-10-21T20:57:36.176Z,30.63
2018-10-21T21:00:08.871Z,29.73
2018-10-21T21:02:37.538Z,28.50
2018-10-21T21:05:07.835Z,30.23
2018-10-21T21:07:36.504Z,30.00
2018-10-21T21:10:06.250Z,29.87
2018-10-21T21:12:34.969Z,30.53
2018-10-21T21:15:03.647Z,31.20
2018-10-21T21:17:32.344Z,30.17
2018-10-21T21:20:01.054Z,31.50
2018-10-21T21:22:29.708Z,29.67
2018-10-21T21:24:58.414Z,30.40
2018-10-21T21:27:27.106Z,30.90
2018-10-21T21:29:55.821Z,31.63
2018-10-21T21:32:24.669Z,29.67
2018-10-21T21:34:53.359Z,29.97
2018-10-21T21:37:22.092Z,30.37
2018-10-21T21:39:51.639Z,31.17
2018-10-21T21:42:20.514Z,31.30
2018-10-21T21:44:49.172Z,31.80
2018-10-21T21:47:17.890Z,32.50
2018-10-21T21:49:46.574Z,32.53
2018-10-21T21:52:15.281Z,31.97
2018-10-21T21:54:43.924Z,32.80
2018-10-21T21:57:12.562Z,31.80
2018-10-21T21:59:41.197Z,30.50
2018-10-21T22:02:09.861Z,32.57
2018-10-21T22:04:38.516Z,33.33
2018-10-21T22:07:07.741Z,34.47
2018-10-21T22:09:36.433Z,35.97
2018-10-21T22:12:05.176Z,35.33
2018-10-21T22:14:33.834Z,38.10
2018-10-21T22:17:02.512Z,36.97
2018-10-21T22:19:31.178Z,39.37
2018-10-21T22:21:59.881Z,37.33
2018-10-21T22:24:28.543Z,36.80
2018-10-21T22:26:57.210Z,36.77
2018-10-21T22:29:25.881Z,36.53
2018-10-21T22:32:01.322Z,34.47
2018-10-21T22:34:29.952Z,36.10
2018-10-21T22:36:58.637Z,35.30
2018-10-21T22:39:27.326Z,35.47
2018-10-21T22:41:56.048Z,34.53
2018-10-21T22:44:24.708Z,36.07
2018-10-21T22:46:53.455Z,36.00
2018-10-21T22:49:22.090Z,33.67
2018-10-21T22:51:50.761Z,32.73
2018-10-21T22:54:19.462Z,32.97
2018-10-21T22:56:48.020Z,32.47
2018-10-21T22:59:16.718Z,32.03
2018-10-21T23:01:45.396Z,32.73
2018-10-21T23:04:14.097Z,33.27
2018-10-21T23:06:42.775Z,32.77
2018-10-21T23:09:12.351Z,29.83
2018-10-21T23:11:41.442Z,33.40
2018-10-21T23:14:12.314Z,32.63
2018-10-21T23:16:41.084Z,33.63
2018-10-21T23:19:20.803Z,32.30
2018-10-21T23:21:49.486Z,32.97
2018-10-21T23:24:18.144Z,32.70
2018-10-21T23:26:46.834Z,32.53
2018-10-21T23:29:15.510Z,32.93
2018-10-21T23:31:44.145Z,33.00
2018-10-21T23:34:12.849Z,32.33
2018-10-21T23:36:41.452Z,33.53
2018-10-21T23:39:10.174Z,33.27
2018-10-21T23:41:38.814Z,33.60
2018-10-21T23:44:07.489Z,32.67
2018-10-21T23:46:36.104Z,34.23
2018-10-21T23:49:05.906Z,32.87
2018-10-21T23:51:34.547Z,31.10
2018-10-21T23:54:03.253Z,30.83
2018-10-21T23:56:31.885Z,32.40
2018-10-21T23:59:00.549Z,32.50
